sensor_id;sensor_type;location;lat;lon;timestamp;pressure;altitude;pressure_sealevel;temperature;humidity
41703;BME280;861;48.808;9.006;2023-08-17T00:02:15;97249.88;;;22.52;86.85
41703;BME280;861;48.808;9.006;2023-08-17T00:04:41;97245.75;;;22.56;87.09
41703;BME280;861;48.808;9.006;2023-08-17T00:07:08;97256.53;;;22.63;87.02
41703;BME280;861;48.808;9.006;2023-08-17T00:09:35;97262.75;;;22.67;85.89
41703;BME280;861;48.808;9.006;2023-08-17T00:12:01;97246.28;;;22.91;85.01
41703;BME280;861;48.808;9.006;2023-08-17T00:14:28;97237.72;;;22.58;86.14
41703;BME280;861;48.808;9.006;2023-08-17T00:16:54;97239.88;;;22.54;87.05
41703;BME280;861;48.808;9.006;2023-08-17T00:19:21;97242.66;;;22.63;86.67
41703;BME280;861;48.808;9.006;2023-08-17T00:21:53;97253.16;;;22.68;86.83
41703;BME280;861;48.808;9.006;2023-08-17T00:24:21;97247.44;;;22.63;86.55
41703;BME280;861;48.808;9.006;2023-08-17T00:26:47;97243.13;;;22.71;86.83
41703;BME280;861;48.808;9.006;2023-08-17T00:29:14;97243.13;;;22.53;87.11
41703;BME280;861;48.808;9.006;2023-08-17T00:31:42;97250.78;;;22.49;87.55
41703;BME280;861;48.808;9.006;2023-08-17T00:34:08;97242.75;;;22.51;87.93
41703;BME280;861;48.808;9.006;2023-08-17T00:36:35;97238.97;;;22.57;87.69
41703;BME280;861;48.808;9.006;2023-08-17T00:39:02;97240.00;;;22.51;87.30
41703;BME280;861;48.808;9.006;2023-08-17T00:41:28;97230.63;;;22.57;86.39
41703;BME280;861;48.808;9.006;2023-08-17T00:43:56;97224.47;;;22.62;86.38
41703;BME280;861;48.808;9.006;2023-08-17T00:46:24;97229.41;;;22.67;86.66
41703;BME280;861;48.808;9.006;2023-08-17T00:48:51;97227.88;;;22.66;86.71
41703;BME280;861;48.808;9.006;2023-08-17T00:51:19;97232.47;;;22.60;86.66
41703;BME280;861;48.808;9.006;2023-08-17T00:53:47;97231.59;;;22.33;88.01
41703;BME280;861;48.808;9.006;2023-08-17T00:56:13;97226.47;;;22.53;86.48
41703;BME280;861;48.808;9.006;2023-08-17T00:58:41;97228.88;;;22.42;86.05
41703;BME280;861;48.808;9.006;2023-08-17T01:01:09;97229.94;;;22.44;86.28
41703;BME280;861;48.808;9.006;2023-08-17T01:03:36;97223.78;;;22.40;86.04
41703;BME280;861;48.808;9.006;2023-08-17T01:06:03;97217.69;;;22.24;87.04
41703;BME280;861;48.808;9.006;2023-08-17T01:08:31;97222.50;;;22.23;86.79
41703;BME280;861;48.808;9.006;2023-08-17T01:17:03;97222.84;;;22.34;85.99
41703;BME280;861;48.808;9.006;2023-08-17T01:19:37;97225.44;;;22.38;85.90
41703;BME280;861;48.808;9.006;2023-08-17T01:22:08;97224.38;;;22.35;86.14
41703;BME280;861;48.808;9.006;2023-08-17T01:24:37;97218.47;;;22.15;86.93
41703;BME280;861;48.808;9.006;2023-08-17T01:27:03;97222.94;;;22.22;86.60
41703;BME280;861;48.808;9.006;2023-08-17T01:29:30;97221.41;;;22.21;87.21
41703;BME280;861;48.808;9.006;2023-08-17T01:32:25;97219.69;;;22.14;88.21
41703;BME280;861;48.808;9.006;2023-08-17T01:35:15;97226.66;;;22.28;87.36
41703;BME280;861;48.808;9.006;2023-08-17T01:37:54;97227.13;;;22.26;87.89
41703;BME280;861;48.808;9.006;2023-08-17T01:40:29;97221.59;;;22.26;88.26
41703;BME280;861;48.808;9.006;2023-08-17T01:43:00;97219.59;;;22.36;87.54
41703;BME280;861;48.808;9.006;2023-08-17T01:45:28;97225.50;;;22.47;86.69
41703;BME280;861;48.808;9.006;2023-08-17T01:47:58;97222.84;;;22.34;87.34
41703;BME280;861;48.808;9.006;2023-08-17T01:50:28;97223.28;;;22.33;87.60
41703;BME280;861;48.808;9.006;2023-08-17T01:52:54;97221.94;;;22.37;87.19
41703;BME280;861;48.808;9.006;2023-08-17T01:55:22;97210.31;;;22.30;86.85
41703;BME280;861;48.808;9.006;2023-08-17T01:57:49;97217.28;;;22.34;86.94
41703;BME280;861;48.808;9.006;2023-08-17T02:00:16;97211.75;;;22.34;86.51
41703;BME280;861;48.808;9.006;2023-08-17T02:02:43;97218.03;;;22.35;86.80
41703;BME280;861;48.808;9.006;2023-08-17T02:05:10;97211.53;;;22.20;87.73
41703;BME280;861;48.808;9.006;2023-08-17T02:07:36;97212.03;;;22.27;87.35
41703;BME280;861;48.808;9.006;2023-08-17T02:10:03;97203.41;;;22.34;86.76
41703;BME280;861;48.808;9.006;2023-08-17T02:12:30;97208.34;;;22.39;86.61
41703;BME280;861;48.808;9.006;2023-08-17T02:14:57;97204.88;;;22.17;87.36
41703;BME280;861;48.808;9.006;2023-08-17T02:17:24;97210.75;;;22.19;87.81
41703;BME280;861;48.808;9.006;2023-08-17T02:19:50;97199.22;;;22.30;86.93
41703;BME280;861;48.808;9.006;2023-08-17T02:22:17;97204.00;;;22.29;86.92
41703;BME280;861;48.808;9.006;2023-08-17T02:24:43;97198.63;;;22.35;86.82
41703;BME280;861;48.808;9.006;2023-08-17T02:27:11;97204.28;;;22.22;87.60
41703;BME280;861;48.808;9.006;2023-08-17T02:29:38;97197.38;;;22.27;87.48
41703;BME280;861;48.808;9.006;2023-08-17T02:32:05;97190.28;;;22.26;87.33
41703;BME280;861;48.808;9.006;2023-08-17T02:34:32;97183.34;;;22.30;87.21
41703;BME280;861;48.808;9.006;2023-08-17T02:36:58;97186.25;;;22.27;87.49
41703;BME280;861;48.808;9.006;2023-08-17T02:39:26;97185.34;;;22.30;87.33
41703;BME280;861;48.808;9.006;2023-08-17T02:41:53;97184.41;;;22.33;86.94
41703;BME280;861;48.808;9.006;2023-08-17T02:44:21;97176.28;;;22.29;87.21
41703;BME280;861;48.808;9.006;2023-08-17T02:46:47;97178.28;;;22.38;86.87
41703;BME280;861;48.808;9.006;2023-08-17T02:49:14;97172.91;;;22.34;86.92
41703;BME280;861;48.808;9.006;2023-08-17T02:51:41;97173.31;;;22.33;86.69
41703;BME280;861;48.808;9.006;2023-08-17T02:54:07;97169.16;;;22.28;86.95
41703;BME280;861;48.808;9.006;2023-08-17T02:56:34;97166.56;;;22.25;87.75
41703;BME280;861;48.808;9.006;2023-08-17T02:59:00;97172.56;;;22.32;87.48
41703;BME280;861;48.808;9.006;2023-08-17T03:01:27;97172.13;;;22.34;87.69
41703;BME280;861;48.808;9.006;2023-08-17T03:03:55;97165.03;;;22.42;87.34
41703;BME280;861;48.808;9.006;2023-08-17T03:06:21;97156.84;;;22.38;86.96
41703;BME280;861;48.808;9.006;2023-08-17T03:08:48;97159.63;;;22.38;87.26
41703;BME280;861;48.808;9.006;2023-08-17T03:12:07;97170.72;;;22.38;86.90
41703;BME280;861;48.808;9.006;2023-08-17T03:14:34;97155.78;;;22.45;86.91
41703;BME280;861;48.808;9.006;2023-08-17T03:17:01;97151.78;;;22.46;86.83
41703;BME280;861;48.808;9.006;2023-08-17T03:19:27;97152.56;;;22.46;86.80
41703;BME280;861;48.808;9.006;2023-08-17T03:21:54;97154.22;;;22.44;87.06
41703;BME280;861;48.808;9.006;2023-08-17T03:24:20;97145.91;;;22.44;86.94
41703;BME280;861;48.808;9.006;2023-08-17T03:26:47;97145.16;;;22.43;87.35
41703;BME280;861;48.808;9.006;2023-08-17T03:29:13;97139.59;;;22.43;87.34
41703;BME280;861;48.808;9.006;2023-08-17T03:31:40;97145.56;;;22.24;88.24
41703;BME280;861;48.808;9.006;2023-08-17T03:34:06;97144.28;;;21.98;90.13
41703;BME280;861;48.808;9.006;2023-08-17T03:36:33;97143.94;;;21.87;90.95
41703;BME280;861;48.808;9.006;2023-08-17T03:38:59;97158.72;;;21.84;91.41
41703;BME280;861;48.808;9.006;2023-08-17T03:41:26;97150.69;;;21.86;91.42
41703;BME280;861;48.808;9.006;2023-08-17T03:43:53;97155.03;;;21.87;91.10
41703;BME280;861;48.808;9.006;2023-08-17T03:46:19;97148.69;;;21.86;90.66
41703;BME280;861;48.808;9.006;2023-08-17T03:49:30;97153.53;;;21.73;91.97
41703;BME280;861;48.808;9.006;2023-08-17T03:55:56;97158.28;;;21.64;92.16
41703;BME280;861;48.808;9.006;2023-08-17T03:58:23;97160.84;;;21.80;91.27
41703;BME280;861;48.808;9.006;2023-08-17T04:00:53;97162.69;;;21.83;91.28
41703;BME280;861;48.808;9.006;2023-08-17T04:03:20;97166.59;;;21.94;90.41
41703;BME280;861;48.808;9.006;2023-08-17T04:05:47;97167.03;;;21.84;91.24
41703;BME280;861;48.808;9.006;2023-08-17T04:08:13;97170.63;;;21.93;90.49
41703;BME280;861;48.808;9.006;2023-08-17T04:10:40;97179.28;;;22.04;89.98
41703;BME280;861;48.808;9.006;2023-08-17T04:13:07;97181.63;;;22.15;89.56
41703;BME280;861;48.808;9.006;2023-08-17T04:15:33;97180.09;;;22.23;89.30
41703;BME280;861;48.808;9.006;2023-08-17T04:18:00;97178.25;;;22.29;88.91
41703;BME280;861;48.808;9.006;2023-08-17T04:20:26;97172.06;;;22.16;89.37
41703;BME280;861;48.808;9.006;2023-08-17T04:22:53;97181.94;;;22.17;89.31
41703;BME280;861;48.808;9.006;2023-08-17T04:25:20;97186.25;;;22.18;89.45
41703;BME280;861;48.808;9.006;2023-08-17T04:27:47;97193.22;;;22.31;88.94
41703;BME280;861;48.808;9.006;2023-08-17T04:30:13;97184.84;;;22.13;89.82
41703;BME280;861;48.808;9.006;2023-08-17T04:32:40;97192.03;;;22.02;90.42
41703;BME280;861;48.808;9.006;2023-08-17T04:35:07;97196.66;;;21.96;90.58
41703;BME280;861;48.808;9.006;2023-08-17T04:37:34;97195.06;;;21.86;91.21
41703;BME280;861;48.808;9.006;2023-08-17T04:40:01;97193.97;;;21.83;91.47
41703;BME280;861;48.808;9.006;2023-08-17T04:42:27;97196.13;;;21.79;91.87
41703;BME280;861;48.808;9.006;2023-08-17T04:44:54;97187.84;;;21.88;91.35
41703;BME280;861;48.808;9.006;2023-08-17T04:47:20;97189.22;;;21.84;91.38
41703;BME280;861;48.808;9.006;2023-08-17T04:49:47;97185.34;;;21.81;92.21
41703;BME280;861;48.808;9.006;2023-08-17T04:52:13;97194.94;;;21.89;91.34
41703;BME280;861;48.808;9.006;2023-08-17T04:54:40;97185.28;;;22.03;90.61
41703;BME280;861;48.808;9.006;2023-08-17T04:57:06;97195.03;;;22.16;90.07
41703;BME280;861;48.808;9.006;2023-08-17T04:59:33;97203.38;;;22.25;89.60
41703;BME280;861;48.808;9.006;2023-08-17T05:01:59;97201.38;;;22.26;89.18
41703;BME280;861;48.808;9.006;2023-08-17T05:04:26;97194.75;;;22.23;89.49
41703;BME280;861;48.808;9.006;2023-08-17T05:06:52;97199.06;;;22.24;89.18
41703;BME280;861;48.808;9.006;2023-08-17T05:09:19;97193.66;;;22.21;89.45
41703;BME280;861;48.808;9.006;2023-08-17T05:11:45;97197.97;;;22.22;89.74
41703;BME280;861;48.808;9.006;2023-08-17T05:14:12;97202.44;;;22.28;89.37
41703;BME280;861;48.808;9.006;2023-08-17T05:16:39;97199.09;;;22.33;89.28
41703;BME280;861;48.808;9.006;2023-08-17T05:19:05;97196.31;;;22.33;88.82
41703;BME280;861;48.808;9.006;2023-08-17T05:21:32;97198.31;;;22.33;89.31
41703;BME280;861;48.808;9.006;2023-08-17T05:23:58;97201.69;;;22.28;89.57
41703;BME280;861;48.808;9.006;2023-08-17T05:26:25;97194.09;;;22.19;90.21
41703;BME280;861;48.808;9.006;2023-08-17T05:28:51;97202.19;;;22.35;88.93
41703;BME280;861;48.808;9.006;2023-08-17T05:31:18;97195.53;;;22.33;89.01
41703;BME280;861;48.808;9.006;2023-08-17T05:33:45;97203.38;;;22.25;89.49
41703;BME280;861;48.808;9.006;2023-08-17T05:36:11;97206.63;;;22.33;89.25
41703;BME280;861;48.808;9.006;2023-08-17T05:38:39;97212.81;;;22.37;89.08
41703;BME280;861;48.808;9.006;2023-08-17T05:41:05;97213.16;;;22.48;88.54
41703;BME280;861;48.808;9.006;2023-08-17T05:43:32;97212.50;;;22.35;88.99
41703;BME280;861;48.808;9.006;2023-08-17T05:45:59;97204.63;;;22.24;89.55
41703;BME280;861;48.808;9.006;2023-08-17T05:48:26;97209.56;;;22.29;89.52
41703;BME280;861;48.808;9.006;2023-08-17T05:50:55;97216.19;;;22.32;89.71
41703;BME280;861;48.808;9.006;2023-08-17T05:53:22;97209.84;;;22.31;89.68
41703;BME280;861;48.808;9.006;2023-08-17T05:55:48;97212.34;;;22.29;90.36
41703;BME280;861;48.808;9.006;2023-08-17T05:58:15;97208.66;;;22.32;89.81
41703;BME280;861;48.808;9.006;2023-08-17T06:00:41;97219.28;;;22.34;89.62
41703;BME280;861;48.808;9.006;2023-08-17T06:03:08;97221.75;;;22.32;89.54
41703;BME280;861;48.808;9.006;2023-08-17T06:05:35;97225.03;;;22.48;88.41
41703;BME280;861;48.808;9.006;2023-08-17T06:08:02;97221.47;;;22.48;88.48
41703;BME280;861;48.808;9.006;2023-08-17T06:10:29;97224.50;;;22.32;89.54
41703;BME280;861;48.808;9.006;2023-08-17T06:12:56;97224.69;;;22.37;89.33
41703;BME280;861;48.808;9.006;2023-08-17T06:15:24;97223.34;;;22.51;88.55
41703;BME280;861;48.808;9.006;2023-08-17T06:17:51;97227.16;;;22.44;88.70
41703;BME280;861;48.808;9.006;2023-08-17T06:20:19;97223.00;;;22.49;88.12
41703;BME280;861;48.808;9.006;2023-08-17T06:22:48;97230.25;;;22.46;88.88
41703;BME280;861;48.808;9.006;2023-08-17T06:25:17;97231.91;;;22.35;89.48
41703;BME280;861;48.808;9.006;2023-08-17T06:27:44;97233.63;;;22.32;89.26
41703;BME280;861;48.808;9.006;2023-08-17T06:30:12;97232.09;;;22.40;88.34
41703;BME280;861;48.808;9.006;2023-08-17T06:32:39;97234.69;;;22.35;88.67
41703;BME280;861;48.808;9.006;2023-08-17T06:35:06;97232.25;;;22.37;89.07
41703;BME280;861;48.808;9.006;2023-08-17T06:37:33;97229.25;;;22.53;87.60
41703;BME280;861;48.808;9.006;2023-08-17T06:40:00;97227.84;;;22.57;87.80
41703;BME280;861;48.808;9.006;2023-08-17T06:42:26;97221.97;;;22.55;87.87
41703;BME280;861;48.808;9.006;2023-08-17T06:44:53;97228.97;;;22.69;87.69
41703;BME280;861;48.808;9.006;2023-08-17T06:47:19;97215.69;;;22.64;88.64
41703;BME280;861;48.808;9.006;2023-08-17T06:49:46;97223.84;;;22.58;89.12
41703;BME280;861;48.808;9.006;2023-08-17T06:52:13;97218.16;;;22.62;88.39
41703;BME280;861;48.808;9.006;2023-08-17T06:54:39;97226.19;;;22.69;87.53
41703;BME280;861;48.808;9.006;2023-08-17T06:57:06;97227.56;;;22.74;87.48
41703;BME280;861;48.808;9.006;2023-08-17T06:59:33;97220.31;;;22.76;86.59
41703;BME280;861;48.808;9.006;2023-08-17T07:02:00;97220.78;;;22.84;86.26
41703;BME280;861;48.808;9.006;2023-08-17T07:04:26;97217.72;;;22.91;86.28
41703;BME280;861;48.808;9.006;2023-08-17T07:06:53;97216.78;;;22.85;86.74
41703;BME280;861;48.808;9.006;2023-08-17T07:09:19;97221.56;;;22.93;86.25
41703;BME280;861;48.808;9.006;2023-08-17T07:11:47;97229.44;;;22.86;86.51
41703;BME280;861;48.808;9.006;2023-08-17T07:14:14;97227.59;;;22.83;86.78
41703;BME280;861;48.808;9.006;2023-08-17T07:16:40;97236.97;;;22.76;87.53
41703;BME280;861;48.808;9.006;2023-08-17T07:19:07;97234.53;;;22.78;87.21
41703;BME280;861;48.808;9.006;2023-08-17T07:21:33;97240.53;;;22.77;87.05
41703;BME280;861;48.808;9.006;2023-08-17T07:24:13;97232.53;;;22.79;87.42
41703;BME280;861;48.808;9.006;2023-08-17T07:26:41;97231.44;;;23.03;86.49
41703;BME280;861;48.808;9.006;2023-08-17T07:29:08;97234.22;;;22.94;87.22
41703;BME280;861;48.808;9.006;2023-08-17T07:31:35;97235.94;;;23.10;87.00
41703;BME280;861;48.808;9.006;2023-08-17T07:34:05;97239.94;;;23.18;86.33
41703;BME280;861;48.808;9.006;2023-08-17T07:36:33;97234.06;;;23.16;86.37
41703;BME280;861;48.808;9.006;2023-08-17T07:39:00;97240.28;;;23.29;86.82
41703;BME280;861;48.808;9.006;2023-08-17T07:41:27;97242.25;;;23.19;86.32
41703;BME280;861;48.808;9.006;2023-08-17T07:43:54;97240.75;;;23.27;85.75
41703;BME280;861;48.808;9.006;2023-08-17T07:46:20;97240.41;;;23.52;83.75
41703;BME280;861;48.808;9.006;2023-08-17T07:48:47;97244.69;;;23.62;83.96
41703;BME280;861;48.808;9.006;2023-08-17T07:51:15;97238.38;;;23.62;83.58
41703;BME280;861;48.808;9.006;2023-08-17T07:53:42;97235.88;;;23.73;83.55
41703;BME280;861;48.808;9.006;2023-08-17T07:56:09;97241.88;;;23.80;83.76
41703;BME280;861;48.808;9.006;2023-08-17T07:58:35;97258.13;;;23.82;82.21
41703;BME280;861;48.808;9.006;2023-08-17T08:01:02;97249.59;;;23.76;83.54
41703;BME280;861;48.808;9.006;2023-08-17T08:03:28;97239.69;;;23.93;83.79
41703;BME280;861;48.808;9.006;2023-08-17T08:05:55;97232.13;;;24.03;83.12
41703;BME280;861;48.808;9.006;2023-08-17T08:08:22;97233.50;;;24.07;82.72
41703;BME280;861;48.808;9.006;2023-08-17T08:10:48;97231.56;;;24.23;82.43
41703;BME280;861;48.808;9.006;2023-08-17T08:13:15;97225.94;;;24.32;82.06
41703;BME280;861;48.808;9.006;2023-08-17T08:15:42;97223.59;;;24.39;82.41
41703;BME280;861;48.808;9.006;2023-08-17T08:18:08;97226.09;;;24.61;79.22
41703;BME280;861;48.808;9.006;2023-08-17T08:20:35;97218.06;;;24.63;80.12
41703;BME280;861;48.808;9.006;2023-08-17T08:23:01;97220.03;;;24.71;80.43
41703;BME280;861;48.808;9.006;2023-08-17T08:25:29;97221.34;;;24.85;79.58
41703;BME280;861;48.808;9.006;2023-08-17T08:27:56;97222.06;;;25.09;76.87
41703;BME280;861;48.808;9.006;2023-08-17T08:30:22;97218.03;;;25.10;78.19
41703;BME280;861;48.808;9.006;2023-08-17T08:32:49;97220.72;;;25.04;78.79
41703;BME280;861;48.808;9.006;2023-08-17T08:35:16;97222.44;;;25.02;79.41
41703;BME280;861;48.808;9.006;2023-08-17T08:37:43;97223.63;;;25.10;78.09
41703;BME280;861;48.808;9.006;2023-08-17T08:40:13;97217.66;;;25.02;80.17
41703;BME280;861;48.808;9.006;2023-08-17T08:42:42;97215.22;;;24.95;80.85
41703;BME280;861;48.808;9.006;2023-08-17T08:45:10;97212.03;;;24.88;82.46
41703;BME280;861;48.808;9.006;2023-08-17T08:47:38;97213.47;;;24.98;80.72
41703;BME280;861;48.808;9.006;2023-08-17T08:50:09;97216.53;;;25.23;76.90
41703;BME280;861;48.808;9.006;2023-08-17T08:53:01;97223.25;;;25.31;78.10
41703;BME280;861;48.808;9.006;2023-08-17T08:55:37;97223.25;;;25.31;78.61
41703;BME280;861;48.808;9.006;2023-08-17T08:58:09;97217.94;;;25.42;78.23
41703;BME280;861;48.808;9.006;2023-08-17T09:00:39;97215.25;;;25.63;78.15
41703;BME280;861;48.808;9.006;2023-08-17T09:03:06;97215.84;;;25.67;77.78
41703;BME280;861;48.808;9.006;2023-08-17T09:05:35;97219.69;;;25.84;76.38
41703;BME280;861;48.808;9.006;2023-08-17T09:08:04;97209.75;;;25.97;75.50
41703;BME280;861;48.808;9.006;2023-08-17T09:14:42;97208.88;;;26.20;75.54
41703;BME280;861;48.808;9.006;2023-08-17T09:17:09;97203.06;;;26.24;75.00
41703;BME280;861;48.808;9.006;2023-08-17T09:19:35;97213.66;;;26.69;73.66
41703;BME280;861;48.808;9.006;2023-08-17T09:22:02;97209.34;;;26.88;74.39
41703;BME280;861;48.808;9.006;2023-08-17T09:24:36;97214.44;;;26.89;73.75
41703;BME280;861;48.808;9.006;2023-08-17T09:27:04;97208.38;;;26.91;73.18
41703;BME280;861;48.808;9.006;2023-08-17T09:29:32;97212.03;;;27.02;73.08
41703;BME280;861;48.808;9.006;2023-08-17T09:32:07;97204.78;;;27.31;72.96
41703;BME280;861;48.808;9.006;2023-08-17T09:34:34;97209.31;;;27.28;72.46
41703;BME280;861;48.808;9.006;2023-08-17T09:37:06;97204.91;;;27.42;70.63
41703;BME280;861;48.808;9.006;2023-08-17T09:39:33;97200.44;;;27.55;69.36
41703;BME280;861;48.808;9.006;2023-08-17T09:42:00;97206.66;;;27.65;70.99
41703;BME280;861;48.808;9.006;2023-08-17T09:44:28;97212.63;;;27.52;70.09
41703;BME280;861;48.808;9.006;2023-08-17T09:46:58;97206.97;;;27.72;71.22
41703;BME280;861;48.808;9.006;2023-08-17T09:49:25;97204.38;;;27.94;71.12
41703;BME280;861;48.808;9.006;2023-08-17T09:51:51;97202.75;;;28.13;69.53
41703;BME280;861;48.808;9.006;2023-08-17T09:54:25;97196.47;;;28.24;69.09
41703;BME280;861;48.808;9.006;2023-08-17T09:56:54;97203.75;;;28.47;65.99
41703;BME280;861;48.808;9.006;2023-08-17T09:59:22;97202.34;;;28.63;66.09
41703;BME280;861;48.808;9.006;2023-08-17T10:01:52;97198.03;;;28.62;67.03
41703;BME280;861;48.808;9.006;2023-08-17T10:04:22;97196.50;;;28.66;67.01
41703;BME280;861;48.808;9.006;2023-08-17T10:07:00;97196.56;;;28.83;66.24
41703;BME280;861;48.808;9.006;2023-08-17T10:09:42;97191.47;;;28.81;67.33
41703;BME280;861;48.808;9.006;2023-08-17T10:12:17;97199.78;;;29.07;63.62
41703;BME280;861;48.808;9.006;2023-08-17T10:14:55;97183.91;;;28.98;66.54
41703;BME280;861;48.808;9.006;2023-08-17T10:21:16;97184.78;;;29.21;69.52
41703;BME280;861;48.808;9.006;2023-08-17T10:23:49;97186.19;;;28.94;67.83
41703;BME280;861;48.808;9.006;2023-08-17T10:26:17;97185.91;;;28.87;70.13
41703;BME280;861;48.808;9.006;2023-08-17T10:28:46;97192.91;;;29.19;69.98
41703;BME280;861;48.808;9.006;2023-08-17T10:31:14;97187.31;;;29.13;69.21
41703;BME280;861;48.808;9.006;2023-08-17T10:33:42;97187.13;;;29.39;68.81
41703;BME280;861;48.808;9.006;2023-08-17T10:36:14;97187.19;;;30.16;62.82
41703;BME280;861;48.808;9.006;2023-08-17T10:38:41;97192.06;;;30.05;64.17
41703;BME280;861;48.808;9.006;2023-08-17T10:41:14;97190.25;;;30.18;66.07
41703;BME280;861;48.808;9.006;2023-08-17T10:44:00;97191.78;;;30.36;63.61
41703;BME280;861;48.808;9.006;2023-08-17T10:46:37;97179.25;;;30.42;64.56
41703;BME280;861;48.808;9.006;2023-08-17T10:49:25;97185.59;;;30.59;61.23
41703;BME280;861;48.808;9.006;2023-08-17T10:52:07;97181.59;;;30.16;62.07
41703;BME280;861;48.808;9.006;2023-08-17T10:54:52;97177.25;;;30.32;63.31
41703;BME280;861;48.808;9.006;2023-08-17T10:57:32;97182.09;;;29.98;64.82
41703;BME280;861;48.808;9.006;2023-08-17T11:03:03;97178.25;;;30.34;66.10
41703;BME280;861;48.808;9.006;2023-08-17T11:05:51;97175.19;;;30.05;63.50
41703;BME280;861;48.808;9.006;2023-08-17T11:08:29;97184.13;;;29.70;64.35
41703;BME280;861;48.808;9.006;2023-08-17T11:11:14;97182.59;;;30.02;63.51
41703;BME280;861;48.808;9.006;2023-08-17T11:13:46;97185.16;;;30.00;64.57
41703;BME280;861;48.808;9.006;2023-08-17T11:16:16;97171.63;;;29.82;65.81
41703;BME280;861;48.808;9.006;2023-08-17T11:18:47;97171.88;;;29.95;66.03
41703;BME280;861;48.808;9.006;2023-08-17T11:21:15;97168.81;;;30.21;65.49
41703;BME280;861;48.808;9.006;2023-08-17T11:23:42;97163.84;;;30.71;63.42
41703;BME280;861;48.808;9.006;2023-08-17T11:26:10;97158.00;;;30.58;64.63
41703;BME280;861;48.808;9.006;2023-08-17T11:28:38;97164.63;;;30.71;63.60
41703;BME280;861;48.808;9.006;2023-08-17T11:31:09;97166.44;;;30.63;64.34
41703;BME280;861;48.808;9.006;2023-08-17T11:33:38;97172.09;;;30.47;65.09
41703;BME280;861;48.808;9.006;2023-08-17T11:36:08;97179.69;;;30.68;63.64
41703;BME280;861;48.808;9.006;2023-08-17T11:38:42;97178.53;;;31.04;61.26
41703;BME280;861;48.808;9.006;2023-08-17T11:41:10;97182.75;;;30.70;62.04
41703;BME280;861;48.808;9.006;2023-08-17T11:43:38;97190.03;;;30.27;63.72
41703;BME280;861;48.808;9.006;2023-08-17T11:46:05;97180.03;;;30.15;63.29
41703;BME280;861;48.808;9.006;2023-08-17T11:48:31;97180.56;;;29.92;64.38
41703;BME280;861;48.808;9.006;2023-08-17T11:50:58;97172.38;;;30.10;64.28
41703;BME280;861;48.808;9.006;2023-08-17T11:53:32;97169.81;;;30.01;64.67
41703;BME280;861;48.808;9.006;2023-08-17T11:55:59;97166.75;;;29.77;65.23
41703;BME280;861;48.808;9.006;2023-08-17T11:58:46;97171.09;;;29.72;64.90
41703;BME280;861;48.808;9.006;2023-08-17T12:01:13;97182.59;;;29.69;66.17
41703;BME280;861;48.808;9.006;2023-08-17T12:03:42;97188.13;;;29.41;69.13
41703;BME280;861;48.808;9.006;2023-08-17T12:06:10;97184.84;;;29.48;67.95
41703;BME280;861;48.808;9.006;2023-08-17T12:08:41;97191.78;;;29.80;65.89
41703;BME280;861;48.808;9.006;2023-08-17T12:11:10;97192.31;;;29.73;65.39
41703;BME280;861;48.808;9.006;2023-08-17T12:13:37;97202.69;;;29.45;66.61
41703;BME280;861;48.808;9.006;2023-08-17T12:16:04;97196.25;;;29.23;66.94
41703;BME280;861;48.808;9.006;2023-08-17T12:18:34;97196.19;;;29.06;68.39
41703;BME280;861;48.808;9.006;2023-08-17T12:21:04;97200.22;;;28.94;69.78
41703;BME280;861;48.808;9.006;2023-08-17T12:23:33;97206.31;;;28.93;69.55
41703;BME280;861;48.808;9.006;2023-08-17T12:26:00;97219.81;;;28.89;69.05
41703;BME280;861;48.808;9.006;2023-08-17T12:28:26;97213.84;;;28.65;69.74
41703;BME280;861;48.808;9.006;2023-08-17T12:31:02;97212.94;;;28.48;70.82
41703;BME280;861;48.808;9.006;2023-08-17T12:33:29;97195.72;;;28.29;71.25
41703;BME280;861;48.808;9.006;2023-08-17T12:35:56;97195.59;;;28.43;70.62
41703;BME280;861;48.808;9.006;2023-08-17T12:38:25;97210.31;;;28.02;72.73
41703;BME280;861;48.808;9.006;2023-08-17T12:40:52;97221.84;;;28.09;72.31
41703;BME280;861;48.808;9.006;2023-08-17T12:43:19;97228.19;;;28.10;72.14
41703;BME280;861;48.808;9.006;2023-08-17T12:45:46;97227.44;;;28.09;72.14
41703;BME280;861;48.808;9.006;2023-08-17T12:48:12;97233.53;;;27.82;74.09
41703;BME280;861;48.808;9.006;2023-08-17T12:50:39;97244.13;;;27.73;73.54
41703;BME280;861;48.808;9.006;2023-08-17T12:53:05;97252.47;;;27.42;75.40
41703;BME280;861;48.808;9.006;2023-08-17T12:55:32;97237.03;;;27.26;76.33
41703;BME280;861;48.808;9.006;2023-08-17T12:57:58;97231.34;;;27.00;78.08
41703;BME280;861;48.808;9.006;2023-08-17T13:00:25;97232.69;;;26.85;77.35
41703;BME280;861;48.808;9.006;2023-08-17T13:02:51;97235.91;;;26.63;80.61
41703;BME280;861;48.808;9.006;2023-08-17T13:05:18;97229.75;;;26.74;81.19
41703;BME280;861;48.808;9.006;2023-08-17T13:07:45;97229.66;;;26.54;82.85
41703;BME280;861;48.808;9.006;2023-08-17T13:10:11;97227.91;;;26.36;83.78
41703;BME280;861;48.808;9.006;2023-08-17T13:12:38;97227.47;;;26.23;83.96
41703;BME280;861;48.808;9.006;2023-08-17T13:15:05;97227.03;;;26.30;83.60
41703;BME280;861;48.808;9.006;2023-08-17T13:17:32;97216.53;;;26.40;83.30
41703;BME280;861;48.808;9.006;2023-08-17T13:20:00;97218.31;;;26.23;83.16
41703;BME280;861;48.808;9.006;2023-08-17T13:22:26;97223.38;;;26.39;81.71
41703;BME280;861;48.808;9.006;2023-08-17T13:24:53;97232.19;;;26.17;82.96
41703;BME280;861;48.808;9.006;2023-08-17T13:27:20;97230.59;;;26.31;83.51
41703;BME280;861;48.808;9.006;2023-08-17T13:29:46;97228.34;;;26.49;80.36
41703;BME280;861;48.808;9.006;2023-08-17T13:32:13;97219.72;;;26.33;81.66
41703;BME280;861;48.808;9.006;2023-08-17T13:34:39;97219.16;;;26.29;81.79
41703;BME280;861;48.808;9.006;2023-08-17T13:37:06;97209.25;;;25.99;83.90
41703;BME280;861;48.808;9.006;2023-08-17T13:39:32;97223.13;;;25.93;84.57
41703;BME280;861;48.808;9.006;2023-08-17T13:41:59;97211.97;;;25.93;82.97
41703;BME280;861;48.808;9.006;2023-08-17T13:44:26;97208.69;;;25.66;83.31
41703;BME280;861;48.808;9.006;2023-08-17T13:46:52;97211.50;;;25.66;83.90
41703;BME280;861;48.808;9.006;2023-08-17T13:49:19;97209.56;;;26.01;82.06
41703;BME280;861;48.808;9.006;2023-08-17T13:51:45;97196.97;;;25.76;82.02